sensor_id;sensor_type;location;lat;lon;timestamp;temperature;humidity
23347;DHT22;36852;45.466;11.066;2024-01-16T06:43:50;1.70;99.90
23347;DHT22;36852;45.466;11.066;2024-01-16T06:52:46;1.50;99.90
23347;DHT22;36852;45.466;11.066;2024-01-16T06:55:36;1.50;99.90
23347;DHT22;36852;45.466;11.066;2024-01-16T06:58:13;1.60;99.90
23347;DHT22;36852;45.466;11.066;2024-01-16T07:01:18;1.50;99.90
23347;DHT22;36852;45.466;11.066;2024-01-16T07:03:49;1.60;99.90
23347;DHT22;36852;45.466;11.066;2024-01-16T07:09:04;1.50;99.90
23347;DHT22;36852;45.466;11.066;2024-01-16T07:11:33;1.50;99.90
23347;DHT22;36852;45.466;11.066;2024-01-16T07:22:59;1.70;99.90
23347;DHT22;36852;45.466;11.066;2024-01-16T07:25:37;1.90;99.90
23347;DHT22;36852;45.466;11.066;2024-01-16T07:28:10;2.20;99.90
23347;DHT22;36852;45.466;11.066;2024-01-16T07:30:42;2.60;99.90
23347;DHT22;36852;45.466;11.066;2024-01-16T07:33:11;3.10;99.90
23347;DHT22;36852;45.466;11.066;2024-01-16T07:35:41;3.60;99.90
23347;DHT22;36852;45.466;11.066;2024-01-16T07:38:15;4.20;99.90
23347;DHT22;36852;45.466;11.066;2024-01-16T07:40:43;4.50;99.90
23347;DHT22;36852;45.466;11.066;2024-01-16T07:43:34;4.90;99.90
23347;DHT22;36852;45.466;11.066;2024-01-16T07:46:21;5.10;99.90
23347;DHT22;36852;45.466;11.066;2024-01-16T07:48:50;5.10;99.90
23347;DHT22;36852;45.466;11.066;2024-01-16T07:51:22;5.20;99.90
23347;DHT22;36852;45.466;11.066;2024-01-16T07:54:04;5.10;99.90
23347;DHT22;36852;45.466;11.066;2024-01-16T07:56:58;5.20;99.90
23347;DHT22;36852;45.466;11.066;2024-01-16T07:59:34;5.30;99.90
23347;DHT22;36852;45.466;11.066;2024-01-16T08:05:03;5.80;99.90
23347;DHT22;36852;45.466;11.066;2024-01-16T08:08:21;5.90;99.90
23347;DHT22;36852;45.466;11.066;2024-01-16T08:13:53;5.80;99.90
23347;DHT22;36852;45.466;11.066;2024-01-16T09:53:33;11.10;99.90
23347;DHT22;36852;45.466;11.066;2024-01-16T09:56:04;11.70;99.90
23347;DHT22;36852;45.466;11.066;2024-01-16T09:58:36;12.20;98.50
23347;DHT22;36852;45.466;11.066;2024-01-16T10:10:20;15.40;87.90
23347;DHT22;36852;45.466;11.066;2024-01-16T11:12:21;15.00;51.20
23347;DHT22;36852;45.466;11.066;2024-01-16T11:21:15;12.90;54.20
23347;DHT22;36852;45.466;11.066;2024-01-16T11:27:25;11.80;55.70
23347;DHT22;36852;45.466;11.066;2024-01-16T11:30:29;11.40;55.20
23347;DHT22;36852;45.466;11.066;2024-01-16T11:39:25;10.40;56.00
23347;DHT22;36852;45.466;11.066;2024-01-16T12:05:02;10.10;58.10
23347;DHT22;36852;45.466;11.066;2024-01-16T12:08:45;10.10;58.30
23347;DHT22;36852;45.466;11.066;2024-01-16T12:12:05;10.00;58.20
23347;DHT22;36852;45.466;11.066;2024-01-16T12:15:23;10.00;62.20
23347;DHT22;36852;45.466;11.066;2024-01-16T12:18:44;10.00;57.90
23347;DHT22;36852;45.466;11.066;2024-01-16T12:22:00;10.10;62.50
23347;DHT22;36852;45.466;11.066;2024-01-16T12:25:05;10.00;66.00
23347;DHT22;36852;45.466;11.066;2024-01-16T12:49:15;10.20;69.60
23347;DHT22;36852;45.466;11.066;2024-01-16T12:56:29;10.10;70.50
23347;DHT22;36852;45.466;11.066;2024-01-16T13:30:23;10.50;82.70
23347;DHT22;36852;45.466;11.066;2024-01-16T13:33:43;10.30;84.50
23347;DHT22;36852;45.466;11.066;2024-01-16T13:40:11;10.20;85.80
23347;DHT22;36852;45.466;11.066;2024-01-16T13:43:20;10.20;84.50
23347;DHT22;36852;45.466;11.066;2024-01-16T13:46:15;10.20;89.00
23347;DHT22;36852;45.466;11.066;2024-01-16T13:49:09;10.10;91.30
23347;DHT22;36852;45.466;11.066;2024-01-16T13:52:13;10.00;92.30
23347;DHT22;36852;45.466;11.066;2024-01-16T14:18:37;9.90;95.40
23347;DHT22;36852;45.466;11.066;2024-01-16T14:34:36;9.90;94.70
23347;DHT22;36852;45.466;11.066;2024-01-16T14:53:26;9.90;95.60
23347;DHT22;36852;45.466;11.066;2024-01-16T14:56:34;9.90;96.00
23347;DHT22;36852;45.466;11.066;2024-01-16T19:53:12;6.80;99.90
23347;DHT22;36852;45.466;11.066;2024-01-16T19:56:07;6.80;99.90
23347;DHT22;36852;45.466;11.066;2024-01-16T19:59:06;6.80;99.90
23347;DHT22;36852;45.466;11.066;2024-01-16T20:02:09;6.80;99.90
23347;DHT22;36852;45.466;11.066;2024-01-16T20:05:11;6.70;99.90
23347;DHT22;36852;45.466;11.066;2024-01-16T20:08:17;6.70;99.90
23347;DHT22;36852;45.466;11.066;2024-01-16T20:11:29;6.70;99.90
23347;DHT22;36852;45.466;11.066;2024-01-16T20:14:29;6.70;99.90
23347;DHT22;36852;45.466;11.066;2024-01-16T20:17:30;6.70;99.90
23347;DHT22;36852;45.466;11.066;2024-01-16T20:20:26;6.70;99.90
23347;DHT22;36852;45.466;11.066;2024-01-16T20:23:05;6.60;99.90
23347;DHT22;36852;45.466;11.066;2024-01-16T20:25:44;6.60;99.90
23347;DHT22;36852;45.466;11.066;2024-01-16T20:28:44;6.50;99.90
23347;DHT22;36852;45.466;11.066;2024-01-16T20:31:42;6.50;99.90
23347;DHT22;36852;45.466;11.066;2024-01-16T20:34:40;6.50;99.90
23347;DHT22;36852;45.466;11.066;2024-01-16T20:37:40;6.60;99.90
23347;DHT22;36852;45.466;11.066;2024-01-16T20:40:36;6.60;99.90
23347;DHT22;36852;45.466;11.066;2024-01-16T20:43:39;6.70;99.90
23347;DHT22;36852;45.466;11.066;2024-01-16T20:46:39;6.70;99.90
23347;DHT22;36852;45.466;11.066;2024-01-16T20:49:39;6.70;99.90
23347;DHT22;36852;45.466;11.066;2024-01-16T20:52:39;6.70;99.90
23347;DHT22;36852;45.466;11.066;2024-01-16T20:55:43;6.70;99.90
23347;DHT22;36852;45.466;11.066;2024-01-16T20:58:41;6.70;99.90
23347;DHT22;36852;45.466;11.066;2024-01-16T21:01:36;6.70;99.90
23347;DHT22;36852;45.466;11.066;2024-01-16T21:04:12;6.60;99.90
23347;DHT22;36852;45.466;11.066;2024-01-16T21:07:11;6.60;99.90
23347;DHT22;36852;45.466;11.066;2024-01-16T21:10:09;6.60;99.90
23347;DHT22;36852;45.466;11.066;2024-01-16T21:13:12;6.70;99.90
23347;DHT22;36852;45.466;11.066;2024-01-16T21:16:12;6.60;99.90
